createdAt,value
2019-06-20T00:01:13.398Z,12.43
2019-06-20T00:03:43.195Z,14.53
2019-06-20T00:06:13.014Z,12.40
2019-06-20T00:08:42.895Z,13.97
2019-06-20T00:11:12.764Z,12.90
2019-06-20T00:13:42.751Z,14.00
2019-06-20T00:16:12.729Z,13.27
2019-06-20T00:18:42.481Z,12.97
2019-06-20T00:21:12.106Z,13.00
2019-06-20T00:23:43.154Z,12.77
2019-06-20T00:26:13.181Z,12.60
2019-06-20T00:28:42.997Z,12.57
2019-06-20T00:31:12.955Z,13.40
2019-06-20T00:33:42.823Z,12.40
2019-06-20T00:36:12.747Z,14.17
2019-06-20T00:38:42.578Z,16.37
2019-06-20T00:41:12.457Z,16.37
2019-06-20T00:43:42.374Z,20.27
2019-06-20T00:46:12.374Z,17.80
2019-06-20T00:48:42.214Z,19.30
2019-06-20T00:51:12.114Z,17.57
2019-06-20T00:53:41.778Z,22.40
2019-06-20T00:56:11.566Z,19.53
2019-06-20T00:58:41.261Z,16.97
2019-06-20T01:01:10.996Z,16.83
2019-06-20T01:03:40.787Z,17.10
2019-06-20T01:06:10.722Z,17.00
2019-06-20T01:08:40.680Z,16.00
2019-06-20T01:11:10.479Z,16.67
2019-06-20T01:13:40.370Z,17.10
2019-06-20T01:16:10.409Z,13.30
2019-06-20T01:18:40.310Z,14.70
2019-06-20T01:21:10.328Z,13.80
2019-06-20T01:23:40.387Z,15.17
2019-06-20T01:26:10.161Z,18.23
2019-06-20T01:28:40.075Z,17.83
2019-06-20T01:31:09.988Z,26.37
2019-06-20T01:33:39.689Z,23.70
2019-06-20T01:36:09.520Z,28.30
2019-06-20T01:38:39.602Z,17.07
2019-06-20T01:41:09.659Z,14.97
2019-06-20T01:43:49.997Z,15.80
2019-06-20T01:46:13.294Z,19.27
2019-06-20T01:48:43.192Z,21.17
2019-06-20T01:51:13.011Z,34.83
2019-06-20T01:53:43.988Z,30.17
2019-06-20T01:56:13.768Z,29.87
2019-06-20T01:58:43.464Z,27.40
2019-06-20T02:01:13.445Z,22.63
2019-06-20T02:03:43.196Z,21.23
2019-06-20T02:06:13.014Z,21.17
2019-06-20T02:08:42.869Z,18.73
2019-06-20T02:11:12.642Z,19.97
2019-06-20T02:13:42.649Z,19.00
2019-06-20T02:16:12.536Z,19.43
2019-06-20T02:18:42.409Z,18.10
2019-06-20T02:21:12.227Z,16.87
2019-06-20T02:23:42.201Z,18.47
2019-06-20T02:26:11.930Z,18.57
2019-06-20T02:28:41.841Z,24.07
2019-06-20T02:31:11.614Z,16.47
2019-06-20T02:33:44.352Z,16.50
2019-06-20T02:36:14.179Z,17.23
2019-06-20T02:38:44.126Z,16.13
2019-06-20T02:41:14.092Z,27.87
2019-06-20T02:43:44.241Z,20.67
2019-06-20T02:46:15.288Z,19.67
2019-06-20T02:48:45.085Z,17.73
2019-06-20T02:51:15.491Z,17.90
2019-06-20T02:53:45.565Z,19.30
2019-06-20T02:56:15.255Z,18.70
2019-06-20T02:58:45.169Z,19.13
2019-06-20T03:01:15.251Z,16.43
2019-06-20T03:03:45.027Z,15.97
2019-06-20T03:06:14.795Z,16.97
2019-06-20T03:08:44.463Z,17.03
2019-06-20T03:11:14.355Z,17.30
2019-06-20T03:13:44.165Z,17.63
2019-06-20T03:16:14.119Z,17.73
2019-06-20T03:18:44.045Z,18.83
2019-06-20T03:21:14.056Z,18.73
2019-06-20T03:23:43.834Z,19.53
2019-06-20T03:26:15.010Z,16.37
2019-06-20T03:28:44.779Z,15.07
2019-06-20T03:31:14.492Z,16.13
2019-06-20T03:33:44.383Z,15.40
2019-06-20T03:36:14.214Z,15.13
2019-06-20T03:38:45.345Z,15.27
2019-06-20T03:41:16.337Z,15.90
2019-06-20T03:43:46.112Z,15.00
2019-06-20T03:46:15.929Z,14.37
2019-06-20T03:48:46.996Z,14.57
2019-06-20T03:51:16.934Z,14.33
2019-06-20T03:53:46.797Z,14.90
2019-06-20T03:56:18.267Z,14.00
2019-06-20T03:58:48.191Z,13.80
2019-06-20T04:01:17.986Z,13.67
2019-06-20T04:03:47.811Z,14.37
2019-06-20T04:06:17.545Z,13.57
2019-06-20T04:08:47.408Z,16.13
2019-06-20T04:11:17.375Z,20.93
2019-06-20T04:13:47.186Z,23.40
2019-06-20T04:16:17.253Z,24.83
2019-06-20T04:18:47.004Z,25.37
2019-06-20T04:21:16.844Z,24.93
2019-06-20T04:23:46.682Z,25.33
2019-06-20T04:26:16.437Z,24.47
2019-06-20T04:28:46.089Z,20.20
2019-06-20T04:31:15.963Z,22.63
2019-06-20T04:33:45.624Z,20.63
2019-06-20T04:36:15.516Z,20.20
2019-06-20T04:38:45.370Z,26.53
2019-06-20T04:41:15.385Z,22.40
2019-06-20T04:43:45.135Z,19.13
2019-06-20T04:46:23.851Z,15.13
2019-06-20T04:48:53.584Z,14.87
2019-06-20T04:51:23.439Z,18.83
2019-06-20T04:53:53.278Z,19.50
2019-06-20T04:56:23.254Z,21.47
2019-06-20T04:58:53.066Z,17.57
2019-06-20T05:01:23.009Z,16.73
2019-06-20T05:03:52.870Z,17.77
2019-06-20T05:06:22.538Z,17.07
2019-06-20T05:08:52.343Z,16.80
2019-06-20T05:11:22.351Z,17.10
2019-06-20T05:13:52.302Z,17.03
2019-06-20T05:16:22.169Z,16.87
2019-06-20T05:18:52.183Z,18.30
2019-06-20T05:21:22.550Z,17.63
2019-06-20T05:23:52.314Z,16.23
2019-06-20T05:26:22.141Z,16.23
2019-06-20T05:28:52.066Z,15.00
2019-06-20T05:31:22.015Z,14.93
2019-06-20T05:33:51.837Z,15.07
2019-06-20T05:36:21.710Z,15.87
2019-06-20T05:38:51.730Z,15.03
2019-06-20T05:41:21.545Z,14.97
2019-06-20T05:43:51.438Z,14.73
2019-06-20T05:46:21.222Z,16.03
2019-06-20T05:48:51.088Z,16.23
2019-06-20T05:51:21.014Z,17.43
2019-06-20T05:53:51.080Z,17.40
2019-06-20T05:56:20.856Z,18.10
2019-06-20T05:58:50.684Z,17.70
2019-06-20T06:01:20.518Z,20.37
2019-06-20T06:03:51.328Z,19.87
2019-06-20T06:06:21.114Z,18.50
2019-06-20T06:08:51.922Z,19.30
2019-06-20T06:11:21.663Z,15.63
2019-06-20T06:13:51.494Z,17.27
2019-06-20T06:16:26.885Z,17.43
2019-06-20T06:18:53.048Z,16.47
2019-06-20T06:21:22.952Z,14.77
2019-06-20T06:23:52.667Z,14.77
2019-06-20T06:26:22.454Z,13.60
2019-06-20T06:28:52.447Z,13.10
2019-06-20T06:31:22.343Z,13.03
2019-06-20T06:33:52.251Z,13.70
2019-06-20T06:36:23.543Z,12.57
2019-06-20T06:38:53.305Z,11.93
2019-06-20T06:41:23.115Z,11.57
2019-06-20T06:43:54.076Z,11.57
2019-06-20T06:46:23.867Z,11.47
2019-06-20T06:48:53.595Z,11.63
2019-06-20T06:51:23.435Z,10.00
2019-06-20T06:53:54.537Z,9.80
2019-06-20T06:56:24.351Z,9.90
2019-06-20T06:58:53.979Z,9.73
2019-06-20T07:01:23.804Z,10.27
2019-06-20T07:03:53.733Z,9.77
2019-06-20T07:06:23.739Z,10.17
2019-06-20T07:08:53.628Z,10.40
2019-06-20T07:11:23.426Z,9.53
2019-06-20T07:13:53.184Z,8.95
2019-06-20T07:16:23.079Z,8.63
2019-06-20T07:18:53.970Z,9.10
2019-06-20T07:21:23.819Z,9.83
2019-06-20T07:23:53.535Z,9.60
2019-06-20T07:26:23.526Z,9.70
2019-06-20T07:28:53.422Z,8.95
2019-06-20T07:31:23.443Z,10.23
2019-06-20T07:33:53.267Z,10.30
2019-06-20T07:36:23.280Z,10.00
2019-06-20T07:38:53.208Z,10.25
2019-06-20T07:41:23.458Z,10.55
2019-06-20T07:43:53.531Z,9.70
2019-06-20T07:46:23.306Z,9.45
2019-06-20T07:48:53.181Z,10.63
2019-06-20T07:51:23.074Z,10.95
2019-06-20T07:53:52.807Z,9.70
2019-06-20T07:56:22.749Z,9.83
2019-06-20T07:58:52.725Z,10.15
2019-06-20T08:01:22.552Z,11.70
2019-06-20T08:03:52.239Z,10.03
2019-06-20T08:06:22.043Z,9.45
2019-06-20T08:08:52.085Z,11.93
2019-06-20T08:11:22.183Z,11.10
2019-06-20T08:13:52.040Z,10.43
2019-06-20T08:16:21.933Z,12.37
2019-06-20T08:18:53.093Z,13.30
2019-06-20T08:21:22.990Z,12.30
2019-06-20T08:23:53.001Z,9.53
2019-06-20T08:26:22.989Z,13.80
2019-06-20T08:29:07.347Z,10.05
2019-06-20T08:31:24.952Z,10.32
2019-06-20T08:33:55.972Z,13.00
2019-06-20T08:36:26.423Z,17.40
2019-06-20T08:38:57.540Z,15.08
2019-06-20T08:41:27.877Z,21.17
2019-06-20T08:43:58.454Z,9.43
2019-06-20T08:46:29.273Z,11.50
2019-06-20T08:48:59.508Z,11.90
2019-06-20T08:51:29.307Z,13.68
2019-06-20T08:53:59.284Z,9.53
2019-06-20T08:56:29.170Z,10.20
2019-06-20T08:58:58.901Z,10.08
2019-06-20T09:01:28.950Z,10.32
2019-06-20T09:03:59.871Z,17.27
2019-06-20T09:06:29.885Z,10.50
2019-06-20T09:09:00.073Z,10.28
2019-06-20T09:11:29.971Z,10.72
2019-06-20T09:14:01.363Z,14.70
2019-06-20T09:16:31.391Z,10.20
2019-06-20T09:19:02.545Z,10.13
2019-06-20T09:21:32.343Z,10.30
2019-06-20T09:24:02.057Z,8.25
2019-06-20T09:26:32.069Z,8.55
2019-06-20T09:29:02.922Z,8.63
2019-06-20T09:31:33.486Z,8.25
2019-06-20T09:34:05.313Z,8.85
2019-06-20T09:36:36.664Z,8.45
2019-06-20T09:39:08.276Z,9.47
2019-06-20T09:41:38.156Z,8.85
2019-06-20T09:44:17.851Z,8.88
2019-06-20T09:46:52.328Z,8.40
2019-06-20T09:49:24.284Z,8.55
2019-06-20T09:51:56.627Z,9.48
2019-06-20T09:54:25.604Z,8.75
2019-06-20T09:56:56.890Z,8.53
2019-06-20T09:59:28.061Z,9.93
2019-06-20T10:01:58.892Z,8.98
2019-06-20T10:04:28.862Z,9.85
2019-06-20T10:06:58.619Z,9.50
2019-06-20T10:09:28.490Z,8.45
2019-06-20T10:11:58.356Z,10.13
2019-06-20T10:14:28.412Z,10.93
2019-06-20T10:16:58.376Z,10.35
2019-06-20T10:19:28.416Z,9.05
2019-06-20T10:21:58.337Z,8.70
2019-06-20T10:24:28.275Z,9.13
2019-06-20T10:26:58.135Z,8.70
2019-06-20T10:29:28.229Z,9.03
2019-06-20T10:31:58.178Z,9.25
2019-06-20T10:34:31.068Z,8.88
2019-06-20T10:36:59.939Z,8.43
2019-06-20T10:39:29.745Z,8.55
2019-06-20T10:41:59.697Z,9.03
2019-06-20T10:44:29.531Z,8.68
2019-06-20T10:46:59.393Z,7.78
2019-06-20T10:49:29.240Z,9.10
2019-06-20T10:51:59.216Z,9.40
2019-06-20T10:54:30.435Z,8.10
2019-06-20T10:57:01.669Z,9.50
2019-06-20T10:59:34.572Z,7.72
2019-06-20T11:02:07.230Z,8.93
2019-06-20T11:04:37.120Z,7.78
2019-06-20T11:07:07.890Z,9.20
2019-06-20T11:09:39.619Z,9.50
2019-06-20T11:12:09.940Z,9.95
2019-06-20T11:14:40.341Z,9.90
2019-06-20T11:17:10.191Z,8.53
2019-06-20T11:19:41.606Z,8.58
2019-06-20T11:22:11.658Z,8.70
2019-06-20T11:24:42.945Z,7.85
2019-06-20T11:27:12.938Z,6.33
2019-06-20T11:29:44.099Z,5.67
2019-06-20T11:32:15.254Z,5.70
2019-06-20T11:34:45.026Z,5.47
2019-06-20T11:37:15.954Z,6.53
2019-06-20T11:39:47.405Z,5.90
2019-06-20T11:42:17.213Z,5.90
2019-06-20T11:44:48.322Z,6.03
2019-06-20T11:47:20.573Z,5.90
2019-06-20T11:49:49.592Z,5.83
2019-06-20T11:52:19.520Z,5.62
2019-06-20T11:54:49.304Z,6.30
2019-06-20T11:57:19.189Z,5.87
2019-06-20T11:59:49.124Z,5.78
2019-06-20T12:02:19.188Z,6.47
2019-06-20T12:04:49.209Z,6.30
2019-06-20T12:07:19.185Z,6.20
2019-06-20T12:09:49.224Z,6.80
2019-06-20T12:12:19.054Z,6.25
2019-06-20T12:14:48.937Z,6.58
2019-06-20T12:17:19.034Z,6.50
2019-06-20T12:19:48.896Z,7.08
2019-06-20T12:22:18.778Z,7.20
2019-06-20T12:24:48.945Z,6.90
2019-06-20T12:27:18.809Z,8.00
2019-06-20T12:29:49.333Z,8.43
2019-06-20T12:32:21.510Z,8.58
2019-06-20T12:34:52.722Z,10.38
2019-06-20T12:37:22.463Z,9.40
2019-06-20T12:39:52.391Z,10.78
2019-06-20T12:42:23.753Z,9.15
2019-06-20T12:44:53.655Z,7.20
2019-06-20T12:47:24.841Z,6.57
2019-06-20T12:49:54.742Z,6.50
2019-06-20T12:52:24.640Z,6.72
2019-06-20T12:54:54.534Z,6.67
2019-06-20T12:57:34.104Z,6.67
2019-06-20T13:00:05.050Z,6.37
2019-06-20T13:02:36.451Z,6.63
2019-06-20T13:05:06.783Z,6.70
2019-06-20T13:07:38.596Z,6.97
2019-06-20T13:10:08.883Z,6.63
2019-06-20T13:12:40.661Z,6.80
2019-06-20T13:15:10.713Z,7.33
2019-06-20T13:17:41.955Z,6.63
2019-06-20T13:20:12.787Z,6.90
2019-06-20T13:22:42.928Z,6.40
2019-06-20T13:25:13.985Z,6.17
2019-06-20T13:27:43.941Z,6.27
2019-06-20T13:30:14.176Z,7.10
2019-06-20T13:32:45.407Z,5.80
2019-06-20T13:35:16.147Z,5.93
2019-06-20T13:37:47.697Z,4.80
2019-06-20T13:40:19.300Z,5.73
2019-06-20T13:42:50.349Z,6.50
2019-06-20T13:45:22.994Z,6.77
2019-06-20T13:47:53.590Z,6.00
2019-06-20T13:50:24.551Z,6.87
2019-06-20T13:52:54.917Z,6.43
2019-06-20T13:55:25.335Z,6.73
2019-06-20T13:57:55.270Z,6.50
2019-06-20T14:00:27.296Z,6.40
2019-06-20T14:02:57.294Z,6.50
2019-06-20T14:05:27.136Z,6.13
2019-06-20T14:07:56.998Z,6.63
2019-06-20T14:10:26.839Z,6.77
2019-06-20T14:12:56.500Z,7.30
2019-06-20T14:15:26.461Z,6.13
2019-06-20T14:17:56.280Z,6.33
2019-06-20T14:20:26.983Z,6.47
2019-06-20T14:22:57.035Z,5.53
2019-06-20T14:25:26.783Z,5.57
2019-06-20T14:27:56.762Z,5.70
2019-06-20T14:30:26.965Z,5.03
2019-06-20T14:32:56.968Z,5.23
2019-06-20T14:35:26.782Z,4.90
2019-06-20T14:37:56.722Z,5.80
2019-06-20T14:40:26.593Z,5.50
2019-06-20T14:42:56.204Z,6.00
2019-06-20T14:45:26.211Z,5.83
2019-06-20T14:47:56.056Z,6.40
2019-06-20T14:50:25.967Z,6.20
2019-06-20T14:52:55.817Z,5.65
2019-06-20T14:55:25.583Z,6.15
2019-06-20T14:57:55.400Z,5.22
2019-06-20T15:00:26.973Z,6.58
2019-06-20T15:02:58.669Z,6.55
2019-06-20T15:05:28.521Z,6.87
2019-06-20T15:08:13.819Z,6.05
2019-06-20T15:10:43.816Z,6.00
2019-06-20T15:13:13.428Z,6.85
2019-06-20T15:15:45.899Z,7.33
2019-06-20T15:18:14.698Z,6.53
2019-06-20T15:20:45.244Z,6.83
2019-06-20T15:23:16.107Z,7.35
2019-06-20T15:25:47.080Z,7.28
2019-06-20T15:28:17.338Z,6.67
2019-06-20T15:30:48.883Z,6.40
2019-06-20T15:33:18.728Z,6.90
2019-06-20T15:35:49.235Z,6.90
2019-06-20T15:38:21.679Z,6.28
2019-06-20T15:40:51.658Z,6.53
2019-06-20T15:43:21.351Z,6.45
2019-06-20T15:45:52.089Z,6.20
2019-06-20T15:48:21.805Z,7.33
2019-06-20T15:50:51.609Z,6.20
2019-06-20T15:53:21.464Z,6.22
2019-06-20T15:55:51.256Z,6.12
2019-06-20T15:58:21.057Z,6.08
2019-06-20T16:00:52.020Z,5.70
2019-06-20T16:03:21.706Z,6.75
2019-06-20T16:05:51.521Z,7.10
2019-06-20T16:08:21.488Z,6.42
2019-06-20T16:10:51.355Z,6.58
2019-06-20T16:13:21.182Z,6.00
2019-06-20T16:15:51.331Z,5.72
2019-06-20T16:18:22.353Z,6.87
2019-06-20T16:20:52.238Z,6.15
2019-06-20T16:23:21.976Z,6.53
2019-06-20T16:25:51.848Z,6.62
2019-06-20T16:28:21.714Z,6.30
2019-06-20T16:31:05.192Z,6.10
2019-06-20T16:33:25.432Z,5.85
2019-06-20T16:35:54.649Z,6.83
2019-06-20T16:38:24.333Z,6.20
2019-06-20T16:40:54.208Z,5.53
2019-06-20T16:43:24.060Z,6.03
2019-06-20T16:45:53.970Z,6.47
2019-06-20T16:48:23.863Z,6.95
2019-06-20T16:50:53.521Z,7.22
2019-06-20T16:53:23.580Z,6.83
2019-06-20T16:55:53.457Z,7.20
2019-06-20T16:58:23.383Z,7.15
2019-06-20T17:00:53.435Z,6.80
2019-06-20T17:03:23.315Z,7.45
2019-06-20T17:05:53.208Z,7.13
2019-06-20T17:08:23.032Z,7.22
2019-06-20T17:10:52.746Z,7.70
2019-06-20T17:13:22.712Z,6.97
2019-06-20T17:15:52.742Z,7.20
2019-06-20T17:18:22.644Z,6.30
2019-06-20T17:20:52.527Z,6.55
2019-06-20T17:23:22.547Z,6.17
2019-06-20T17:25:52.429Z,5.60
2019-06-20T17:28:22.471Z,6.10
2019-06-20T17:30:52.399Z,5.90
2019-06-20T17:33:22.277Z,6.13
2019-06-20T17:35:52.097Z,5.70
2019-06-20T17:38:21.740Z,6.53
2019-06-20T17:40:51.614Z,6.80
2019-06-20T17:43:21.157Z,5.97
2019-06-20T17:45:50.845Z,6.37
2019-06-20T17:48:20.744Z,5.80
2019-06-20T17:50:50.577Z,6.77
2019-06-20T17:53:20.300Z,6.60
2019-06-20T17:55:50.152Z,6.60
2019-06-20T17:58:19.935Z,5.77
2019-06-20T18:00:49.883Z,6.17
2019-06-20T18:03:19.772Z,6.23
2019-06-20T18:05:49.740Z,6.77
2019-06-20T18:08:19.527Z,7.53
2019-06-20T18:10:49.528Z,5.80
2019-06-20T18:13:19.385Z,6.10
2019-06-20T18:15:49.186Z,5.83
2019-06-20T18:18:18.961Z,6.27
2019-06-20T18:20:48.883Z,5.83
2019-06-20T18:23:18.846Z,5.80
2019-06-20T18:25:48.664Z,6.20
2019-06-20T18:28:18.435Z,6.03
2019-06-20T18:30:48.421Z,5.60
2019-06-20T18:33:18.197Z,6.40
2019-06-20T18:35:48.054Z,6.60
2019-06-20T18:38:17.775Z,6.53
2019-06-20T18:40:48.021Z,5.60
2019-06-20T18:43:17.806Z,6.43
2019-06-20T18:45:47.564Z,5.63
2019-06-20T18:48:17.361Z,6.67
2019-06-20T18:50:47.274Z,7.43
2019-06-20T18:53:17.233Z,6.40
2019-06-20T18:55:47.220Z,6.10
2019-06-20T18:58:18.452Z,6.47
2019-06-20T19:00:48.185Z,7.13
2019-06-20T19:03:21.126Z,6.07
2019-06-20T19:05:49.490Z,6.20
2019-06-20T19:08:19.326Z,6.43
2019-06-20T19:10:49.040Z,6.23
2019-06-20T19:13:18.700Z,6.37
2019-06-20T19:15:48.472Z,6.07
2019-06-20T19:18:18.273Z,6.00
2019-06-20T19:20:49.238Z,6.23
2019-06-20T19:23:19.058Z,6.63
2019-06-20T19:25:48.963Z,7.83
2019-06-20T19:28:18.924Z,6.83
2019-06-20T19:30:50.390Z,6.80
2019-06-20T19:33:20.350Z,7.27
2019-06-20T19:35:51.407Z,6.63
2019-06-20T19:38:21.220Z,7.07
2019-06-20T19:40:51.932Z,6.43
2019-06-20T19:43:21.795Z,6.80
2019-06-20T19:45:51.664Z,6.50
2019-06-20T19:48:21.496Z,6.40
2019-06-20T19:50:51.319Z,7.00
2019-06-20T19:53:21.070Z,6.13
2019-06-20T19:55:50.867Z,6.83
2019-06-20T19:58:20.841Z,6.50
2019-06-20T20:00:50.655Z,6.90
2019-06-20T20:03:20.340Z,7.60
2019-06-20T20:05:50.780Z,7.17
2019-06-20T20:08:21.537Z,8.07
2019-06-20T20:10:51.636Z,7.10
2019-06-20T20:13:21.686Z,7.13
2019-06-20T20:15:53.266Z,6.97
2019-06-20T20:18:23.135Z,6.77
2019-06-20T20:20:52.788Z,7.50
2019-06-20T20:23:22.590Z,7.10
2019-06-20T20:25:52.571Z,6.90
2019-06-20T20:28:22.297Z,7.43
2019-06-20T20:30:53.695Z,6.80
2019-06-20T20:33:23.739Z,6.10
2019-06-20T20:35:53.721Z,6.97
2019-06-20T20:38:23.524Z,6.47
2019-06-20T20:40:53.586Z,6.30
2019-06-20T20:43:23.232Z,5.53
2019-06-20T20:45:53.071Z,7.57
2019-06-20T20:48:22.896Z,7.60
2019-06-20T20:50:52.587Z,7.23
2019-06-20T20:53:22.256Z,7.23
2019-06-20T20:55:52.113Z,6.50
2019-06-20T20:58:23.314Z,7.27
2019-06-20T21:01:05.486Z,6.77
2019-06-20T21:03:35.335Z,7.93
2019-06-20T21:06:05.108Z,6.77
2019-06-20T21:08:35.168Z,7.20
2019-06-20T21:11:05.055Z,7.03
2019-06-20T21:13:35.001Z,9.17
2019-06-20T21:16:05.101Z,9.23
2019-06-20T21:18:34.902Z,10.27
2019-06-20T21:21:05.033Z,11.60
2019-06-20T21:23:35.237Z,13.40
2019-06-20T21:26:05.209Z,12.00
2019-06-20T21:28:35.076Z,12.33
2019-06-20T21:31:05.083Z,17.03
2019-06-20T21:33:34.884Z,24.77
2019-06-20T21:36:08.915Z,26.17
2019-06-20T21:38:36.507Z,25.40
2019-06-20T21:41:06.208Z,16.43
2019-06-20T21:43:35.888Z,10.63
2019-06-20T21:46:06.950Z,11.47
2019-06-20T21:48:36.850Z,14.37
2019-06-20T21:51:06.766Z,16.70
2019-06-20T21:53:37.563Z,11.53
2019-06-20T21:56:07.463Z,9.30
2019-06-20T21:58:37.357Z,10.47
2019-06-20T22:01:09.249Z,10.37
2019-06-20T22:03:39.149Z,10.67
2019-06-20T22:06:22.942Z,11.20
2019-06-20T22:08:40.490Z,10.37
2019-06-20T22:11:10.097Z,9.03
2019-06-20T22:13:41.611Z,9.70
2019-06-20T22:16:11.413Z,9.53
2019-06-20T22:18:41.545Z,9.73
2019-06-20T22:21:11.393Z,9.23
2019-06-20T22:23:41.218Z,9.27
2019-06-20T22:26:11.143Z,10.03
2019-06-20T22:28:41.270Z,10.13
2019-06-20T22:31:11.071Z,9.60
2019-06-20T22:33:40.914Z,9.67
2019-06-20T22:36:10.945Z,10.90
2019-06-20T22:38:40.767Z,10.33
2019-06-20T22:41:10.856Z,10.00
2019-06-20T22:43:40.655Z,10.27
2019-06-20T22:46:10.646Z,21.03
2019-06-20T22:48:40.408Z,21.67
2019-06-20T22:51:13.674Z,22.90
2019-06-20T22:53:43.244Z,17.77
2019-06-20T22:56:13.002Z,18.80
2019-06-20T22:58:42.985Z,19.80
2019-06-20T23:01:12.860Z,20.87
2019-06-20T23:03:42.742Z,19.47
2019-06-20T23:06:12.700Z,18.23
2019-06-20T23:08:42.580Z,19.67
2019-06-20T23:11:12.498Z,18.23
2019-06-20T23:13:42.461Z,16.90
2019-06-20T23:16:12.232Z,16.40
2019-06-20T23:18:41.954Z,16.07
2019-06-20T23:21:11.844Z,14.77
2019-06-20T23:23:41.689Z,13.43
2019-06-20T23:26:12.365Z,12.97
2019-06-20T23:28:42.174Z,12.37
2019-06-20T23:31:11.947Z,12.77
2019-06-20T23:33:41.647Z,12.80
2019-06-20T23:36:11.553Z,12.03
2019-06-20T23:38:41.402Z,11.80
2019-06-20T23:41:11.189Z,16.40
2019-06-20T23:43:40.848Z,14.17
2019-06-20T23:46:10.800Z,12.20
2019-06-20T23:48:40.659Z,13.77
2019-06-20T23:51:24.695Z,13.87
2019-06-20T23:53:42.197Z,15.03
2019-06-20T23:56:12.021Z,17.73
2019-06-20T23:58:41.941Z,20.33
